sensor_id;sensor_type;location;lat;lon;timestamp;P1;durP1;ratioP1;P2;durP2;ratioP2
54121;SDS011;40029;58.708;50.190;2022-09-01T00:02:07;20.48;;;13.52;;
54121;SDS011;40029;58.708;50.190;2022-09-01T00:04:38;22.20;;;13.85;;
54121;SDS011;40029;58.708;50.190;2022-09-01T00:07:10;20.13;;;14.48;;
54121;SDS011;40029;58.708;50.190;2022-09-01T00:09:42;20.88;;;15.15;;
54121;SDS011;40029;58.708;50.190;2022-09-01T00:12:14;18.63;;;14.20;;
54121;SDS011;40029;58.708;50.190;2022-09-01T00:14:45;19.98;;;15.20;;
54121;SDS011;40029;58.708;50.190;2022-09-01T00:17:16;19.38;;;15.63;;
54121;SDS011;40029;58.708;50.190;2022-09-01T00:19:47;19.10;;;15.38;;
54121;SDS011;40029;58.708;50.190;2022-09-01T00:22:18;20.85;;;15.60;;
54121;SDS011;40029;58.708;50.190;2022-09-01T00:24:49;19.90;;;14.73;;
54121;SDS011;40029;58.708;50.190;2022-09-01T00:27:20;28.45;;;15.95;;
54121;SDS011;40029;58.708;50.190;2022-09-01T00:29:51;20.48;;;14.63;;
54121;SDS011;40029;58.708;50.190;2022-09-01T00:32:22;26.42;;;15.13;;
54121;SDS011;40029;58.708;50.190;2022-09-01T00:34:54;20.83;;;15.50;;
54121;SDS011;40029;58.708;50.190;2022-09-01T00:37:25;17.73;;;14.65;;
54121;SDS011;40029;58.708;50.190;2022-09-01T00:39:56;19.75;;;14.88;;
54121;SDS011;40029;58.708;50.190;2022-09-01T00:42:27;20.88;;;14.18;;
54121;SDS011;40029;58.708;50.190;2022-09-01T00:44:58;25.15;;;16.08;;
54121;SDS011;40029;58.708;50.190;2022-09-01T00:47:30;21.15;;;15.65;;
54121;SDS011;40029;58.708;50.190;2022-09-01T00:50:02;19.73;;;15.48;;
54121;SDS011;40029;58.708;50.190;2022-09-01T00:52:40;24.15;;;16.38;;
54121;SDS011;40029;58.708;50.190;2022-09-01T00:55:26;26.77;;;15.43;;
54121;SDS011;40029;58.708;50.190;2022-09-01T00:58:00;19.98;;;14.93;;
54121;SDS011;40029;58.708;50.190;2022-09-01T01:00:34;23.42;;;16.42;;
54121;SDS011;40029;58.708;50.190;2022-09-01T01:03:11;25.55;;;16.80;;
54121;SDS011;40029;58.708;50.190;2022-09-01T01:05:46;25.30;;;16.33;;
54121;SDS011;40029;58.708;50.190;2022-09-01T01:08:29;25.90;;;15.55;;
54121;SDS011;40029;58.708;50.190;2022-09-01T01:11:11;30.65;;;17.35;;
54121;SDS011;40029;58.708;50.190;2022-09-01T01:16:30;22.23;;;16.95;;
54121;SDS011;40029;58.708;50.190;2022-09-01T01:19:01;26.13;;;18.15;;
54121;SDS011;40029;58.708;50.190;2022-09-01T01:21:38;36.42;;;18.92;;
54121;SDS011;40029;58.708;50.190;2022-09-01T01:24:33;34.90;;;19.20;;
54121;SDS011;40029;58.708;50.190;2022-09-01T01:27:04;24.42;;;18.67;;
54121;SDS011;40029;58.708;50.190;2022-09-01T01:29:36;32.17;;;20.27;;
54121;SDS011;40029;58.708;50.190;2022-09-01T01:32:09;34.03;;;19.23;;
54121;SDS011;40029;58.708;50.190;2022-09-01T01:34:42;39.28;;;19.88;;
54121;SDS011;40029;58.708;50.190;2022-09-01T01:37:15;39.25;;;20.05;;
54121;SDS011;40029;58.708;50.190;2022-09-01T01:39:48;48.17;;;22.10;;
54121;SDS011;40029;58.708;50.190;2022-09-01T01:42:19;45.58;;;22.80;;
54121;SDS011;40029;58.708;50.190;2022-09-01T01:44:50;45.95;;;22.88;;
54121;SDS011;40029;58.708;50.190;2022-09-01T01:47:22;31.27;;;20.10;;
54121;SDS011;40029;58.708;50.190;2022-09-01T01:49:53;46.08;;;22.42;;
54121;SDS011;40029;58.708;50.190;2022-09-01T01:52:26;58.55;;;23.40;;
54121;SDS011;40029;58.708;50.190;2022-09-01T01:54:59;42.33;;;21.77;;
54121;SDS011;40029;58.708;50.190;2022-09-01T01:57:30;44.08;;;22.42;;
54121;SDS011;40029;58.708;50.190;2022-09-01T02:00:05;41.20;;;21.75;;
54121;SDS011;40029;58.708;50.190;2022-09-01T02:02:42;55.65;;;22.90;;
54121;SDS011;40029;58.708;50.190;2022-09-01T02:05:21;38.90;;;21.75;;
54121;SDS011;40029;58.708;50.190;2022-09-01T02:07:58;56.15;;;22.30;;
54121;SDS011;40029;58.708;50.190;2022-09-01T02:10:37;60.58;;;23.77;;
54121;SDS011;40029;58.708;50.190;2022-09-01T02:13:12;60.35;;;23.05;;
54121;SDS011;40029;58.708;50.190;2022-09-01T02:15:51;42.05;;;23.00;;
54121;SDS011;40029;58.708;50.190;2022-09-01T02:18:29;56.08;;;24.65;;
54121;SDS011;40029;58.708;50.190;2022-09-01T02:21:06;71.53;;;23.70;;
54121;SDS011;40029;58.708;50.190;2022-09-01T02:23:40;91.40;;;26.02;;
54121;SDS011;40029;58.708;50.190;2022-09-01T02:26:12;49.92;;;24.52;;
54121;SDS011;40029;58.708;50.190;2022-09-01T02:28:44;78.93;;;26.90;;
54121;SDS011;40029;58.708;50.190;2022-09-01T02:31:19;67.78;;;25.30;;
54121;SDS011;40029;58.708;50.190;2022-09-01T02:33:50;54.03;;;24.52;;
54121;SDS011;40029;58.708;50.190;2022-09-01T02:36:23;66.63;;;25.10;;
54121;SDS011;40029;58.708;50.190;2022-09-01T02:38:55;76.47;;;27.67;;
54121;SDS011;40029;58.708;50.190;2022-09-01T02:41:26;51.35;;;24.48;;
54121;SDS011;40029;58.708;50.190;2022-09-01T02:44:00;83.38;;;26.30;;
54121;SDS011;40029;58.708;50.190;2022-09-01T02:46:32;209.40;;;32.05;;
54121;SDS011;40029;58.708;50.190;2022-09-01T02:49:04;132.13;;;27.77;;
54121;SDS011;40029;58.708;50.190;2022-09-01T02:51:35;68.75;;;26.67;;
54121;SDS011;40029;58.708;50.190;2022-09-01T02:54:07;74.43;;;25.92;;
54121;SDS011;40029;58.708;50.190;2022-09-01T02:56:39;96.28;;;26.73;;
54121;SDS011;40029;58.708;50.190;2022-09-01T02:59:10;59.38;;;26.15;;
54121;SDS011;40029;58.708;50.190;2022-09-01T03:01:42;59.38;;;27.15;;
54121;SDS011;40029;58.708;50.190;2022-09-01T03:04:17;58.53;;;27.40;;
54121;SDS011;40029;58.708;50.190;2022-09-01T03:06:49;51.30;;;26.02;;
54121;SDS011;40029;58.708;50.190;2022-09-01T03:09:25;69.80;;;29.02;;
54121;SDS011;40029;58.708;50.190;2022-09-01T03:11:56;62.03;;;28.70;;
54121;SDS011;40029;58.708;50.190;2022-09-01T03:14:28;71.05;;;28.85;;
54121;SDS011;40029;58.708;50.190;2022-09-01T03:16:59;68.13;;;28.52;;
54121;SDS011;40029;58.708;50.190;2022-09-01T03:19:31;58.13;;;27.63;;
54121;SDS011;40029;58.708;50.190;2022-09-01T03:22:06;56.13;;;27.05;;
54121;SDS011;40029;58.708;50.190;2022-09-01T03:24:37;52.75;;;26.80;;
54121;SDS011;40029;58.708;50.190;2022-09-01T03:27:09;43.05;;;24.88;;
54121;SDS011;40029;58.708;50.190;2022-09-01T03:29:41;39.55;;;22.48;;
54121;SDS011;40029;58.708;50.190;2022-09-01T03:32:13;36.10;;;21.77;;
54121;SDS011;40029;58.708;50.190;2022-09-01T03:34:44;30.83;;;20.63;;
54121;SDS011;40029;58.708;50.190;2022-09-01T03:37:15;30.77;;;20.13;;
54121;SDS011;40029;58.708;50.190;2022-09-01T03:39:47;28.23;;;18.88;;
54121;SDS011;40029;58.708;50.190;2022-09-01T03:42:18;27.17;;;18.70;;
54121;SDS011;40029;58.708;50.190;2022-09-01T03:44:49;24.33;;;17.83;;
54121;SDS011;40029;58.708;50.190;2022-09-01T03:47:22;25.30;;;18.38;;
54121;SDS011;40029;58.708;50.190;2022-09-01T03:49:55;25.92;;;17.40;;
54121;SDS011;40029;58.708;50.190;2022-09-01T03:52:26;26.23;;;18.48;;
54121;SDS011;40029;58.708;50.190;2022-09-01T03:54:59;27.17;;;18.88;;
54121;SDS011;40029;58.708;50.190;2022-09-01T03:57:30;26.65;;;17.77;;
54121;SDS011;40029;58.708;50.190;2022-09-01T04:00:03;26.83;;;17.73;;
54121;SDS011;40029;58.708;50.190;2022-09-01T04:02:45;30.73;;;17.00;;
54121;SDS011;40029;58.708;50.190;2022-09-01T04:05:20;26.33;;;17.02;;
54121;SDS011;40029;58.708;50.190;2022-09-01T04:07:59;30.48;;;17.98;;
54121;SDS011;40029;58.708;50.190;2022-09-01T04:10:34;27.33;;;17.38;;
54121;SDS011;40029;58.708;50.190;2022-09-01T04:13:08;24.63;;;15.80;;
54121;SDS011;40029;58.708;50.190;2022-09-01T04:15:41;27.38;;;16.25;;
54121;SDS011;40029;58.708;50.190;2022-09-01T04:18:13;23.52;;;16.38;;
54121;SDS011;40029;58.708;50.190;2022-09-01T04:20:53;30.95;;;18.20;;
54121;SDS011;40029;58.708;50.190;2022-09-01T04:23:31;23.17;;;16.58;;
54121;SDS011;40029;58.708;50.190;2022-09-01T04:26:10;25.55;;;16.70;;
54121;SDS011;40029;58.708;50.190;2022-09-01T04:28:46;21.23;;;15.15;;
54121;SDS011;40029;58.708;50.190;2022-09-01T04:31:20;21.00;;;15.23;;
54121;SDS011;40029;58.708;50.190;2022-09-01T04:33:53;24.17;;;15.93;;
54121;SDS011;40029;58.708;50.190;2022-09-01T04:36:26;20.92;;;15.15;;
54121;SDS011;40029;58.708;50.190;2022-09-01T04:39:01;20.20;;;13.93;;
54121;SDS011;40029;58.708;50.190;2022-09-01T04:41:42;19.58;;;13.55;;
54121;SDS011;40029;58.708;50.190;2022-09-01T04:44:16;16.17;;;12.40;;
54121;SDS011;40029;58.708;50.190;2022-09-01T04:46:49;15.57;;;12.07;;
54121;SDS011;40029;58.708;50.190;2022-09-01T04:49:21;19.45;;;13.32;;
54121;SDS011;40029;58.708;50.190;2022-09-01T04:51:57;22.92;;;13.60;;
54121;SDS011;40029;58.708;50.190;2022-09-01T04:54:28;16.67;;;13.00;;
54121;SDS011;40029;58.708;50.190;2022-09-01T04:57:00;18.10;;;13.23;;
54121;SDS011;40029;58.708;50.190;2022-09-01T04:59:33;20.13;;;14.65;;
54121;SDS011;40029;58.708;50.190;2022-09-01T05:02:05;18.05;;;12.27;;
54121;SDS011;40029;58.708;50.190;2022-09-01T05:04:39;17.17;;;13.60;;
54121;SDS011;40029;58.708;50.190;2022-09-01T05:07:16;23.70;;;13.68;;
54121;SDS011;40029;58.708;50.190;2022-09-01T05:09:48;18.20;;;13.32;;
54121;SDS011;40029;58.708;50.190;2022-09-01T05:12:47;17.98;;;13.73;;
54121;SDS011;40029;58.708;50.190;2022-09-01T05:15:19;20.15;;;14.30;;
54121;SDS011;40029;58.708;50.190;2022-09-01T05:17:50;23.40;;;16.33;;
54121;SDS011;40029;58.708;50.190;2022-09-01T05:20:24;22.52;;;14.45;;
54121;SDS011;40029;58.708;50.190;2022-09-01T05:22:59;18.92;;;13.05;;
54121;SDS011;40029;58.708;50.190;2022-09-01T05:25:36;21.45;;;14.35;;
54121;SDS011;40029;58.708;50.190;2022-09-01T05:28:10;21.90;;;13.80;;
54121;SDS011;40029;58.708;50.190;2022-09-01T05:30:45;17.70;;;14.68;;
54121;SDS011;40029;58.708;50.190;2022-09-01T05:33:17;17.08;;;13.93;;
54121;SDS011;40029;58.708;50.190;2022-09-01T05:35:53;19.50;;;12.98;;
54121;SDS011;40029;58.708;50.190;2022-09-01T05:38:26;22.47;;;16.20;;
54121;SDS011;40029;58.708;50.190;2022-09-01T05:41:03;20.88;;;16.45;;
54121;SDS011;40029;58.708;50.190;2022-09-01T05:43:39;19.70;;;14.35;;
54121;SDS011;40029;58.708;50.190;2022-09-01T05:46:20;18.67;;;14.50;;
54121;SDS011;40029;58.708;50.190;2022-09-01T05:48:53;18.42;;;14.25;;
54121;SDS011;40029;58.708;50.190;2022-09-01T05:51:27;16.92;;;13.48;;
54121;SDS011;40029;58.708;50.190;2022-09-01T05:54:01;16.40;;;13.23;;
54121;SDS011;40029;58.708;50.190;2022-09-01T05:56:35;21.33;;;16.38;;
54121;SDS011;40029;58.708;50.190;2022-09-01T05:59:11;17.00;;;14.55;;
54121;SDS011;40029;58.708;50.190;2022-09-01T06:01:44;20.38;;;12.35;;
54121;SDS011;40029;58.708;50.190;2022-09-01T06:04:17;13.88;;;11.70;;
54121;SDS011;40029;58.708;50.190;2022-09-01T06:06:50;20.58;;;11.65;;
54121;SDS011;40029;58.708;50.190;2022-09-01T06:09:23;11.90;;;10.07;;
54121;SDS011;40029;58.708;50.190;2022-09-01T06:11:57;11.95;;;10.70;;
54121;SDS011;40029;58.708;50.190;2022-09-01T06:14:29;12.88;;;10.18;;
54121;SDS011;40029;58.708;50.190;2022-09-01T06:17:00;15.85;;;11.20;;
54121;SDS011;40029;58.708;50.190;2022-09-01T06:19:32;19.63;;;12.98;;
54121;SDS011;40029;58.708;50.190;2022-09-01T06:22:04;15.25;;;12.38;;
54121;SDS011;40029;58.708;50.190;2022-09-01T06:24:36;13.68;;;12.27;;
54121;SDS011;40029;58.708;50.190;2022-09-01T06:27:09;16.58;;;12.80;;
54121;SDS011;40029;58.708;50.190;2022-09-01T06:29:40;14.00;;;12.02;;
54121;SDS011;40029;58.708;50.190;2022-09-01T06:32:11;15.98;;;12.52;;
54121;SDS011;40029;58.708;50.190;2022-09-01T06:34:43;15.50;;;11.50;;
54121;SDS011;40029;58.708;50.190;2022-09-01T06:37:16;21.05;;;13.55;;
54121;SDS011;40029;58.708;50.190;2022-09-01T06:39:53;15.80;;;13.02;;
54121;SDS011;40029;58.708;50.190;2022-09-01T06:42:26;16.30;;;12.98;;
54121;SDS011;40029;58.708;50.190;2022-09-01T06:45:02;16.35;;;13.00;;
54121;SDS011;40029;58.708;50.190;2022-09-01T06:47:40;15.77;;;13.13;;
54121;SDS011;40029;58.708;50.190;2022-09-01T06:50:15;19.23;;;14.07;;
54121;SDS011;40029;58.708;50.190;2022-09-01T06:52:49;20.17;;;14.52;;
54121;SDS011;40029;58.708;50.190;2022-09-01T06:55:31;25.02;;;16.17;;
54121;SDS011;40029;58.708;50.190;2022-09-01T06:58:04;18.60;;;14.40;;
54121;SDS011;40029;58.708;50.190;2022-09-01T07:00:37;22.10;;;15.27;;
54121;SDS011;40029;58.708;50.190;2022-09-01T07:03:12;23.05;;;14.23;;
54121;SDS011;40029;58.708;50.190;2022-09-01T07:06:07;19.60;;;15.37;;
54121;SDS011;40029;58.708;50.190;2022-09-01T07:08:58;22.17;;;14.52;;
54121;SDS011;40029;58.708;50.190;2022-09-01T07:11:34;26.50;;;15.75;;
54121;SDS011;40029;58.708;50.190;2022-09-01T07:14:06;23.13;;;16.92;;
54121;SDS011;40029;58.708;50.190;2022-09-01T07:16:37;23.45;;;16.80;;
54121;SDS011;40029;58.708;50.190;2022-09-01T07:19:11;18.15;;;13.98;;
54121;SDS011;40029;58.708;50.190;2022-09-01T07:22:00;18.02;;;13.55;;
54121;SDS011;40029;58.708;50.190;2022-09-01T07:24:32;18.05;;;14.80;;
54121;SDS011;40029;58.708;50.190;2022-09-01T07:27:22;18.95;;;15.55;;
54121;SDS011;40029;58.708;50.190;2022-09-01T07:29:58;45.72;;;27.85;;
54121;SDS011;40029;58.708;50.190;2022-09-01T07:32:30;36.45;;;24.38;;
54121;SDS011;40029;58.708;50.190;2022-09-01T07:35:03;32.58;;;22.60;;
54121;SDS011;40029;58.708;50.190;2022-09-01T07:37:38;19.70;;;13.95;;
54121;SDS011;40029;58.708;50.190;2022-09-01T07:40:10;14.40;;;12.90;;
54121;SDS011;40029;58.708;50.190;2022-09-01T07:43:24;10.68;;;9.15;;
54121;SDS011;40029;58.708;50.190;2022-09-01T07:46:16;6.93;;;6.25;;
54121;SDS011;40029;58.708;50.190;2022-09-01T07:48:48;7.45;;;5.88;;
54121;SDS011;40029;58.708;50.190;2022-09-01T07:51:22;7.07;;;6.07;;
54121;SDS011;40029;58.708;50.190;2022-09-01T07:53:57;6.27;;;5.40;;
54121;SDS011;40029;58.708;50.190;2022-09-01T07:56:30;5.97;;;5.47;;
54121;SDS011;40029;58.708;50.190;2022-09-01T07:59:01;8.15;;;4.75;;
54121;SDS011;40029;58.708;50.190;2022-09-01T08:01:33;5.47;;;4.15;;
54121;SDS011;40029;58.708;50.190;2022-09-01T08:04:04;3.97;;;3.58;;
54121;SDS011;40029;58.708;50.190;2022-09-01T08:06:35;4.88;;;3.47;;
54121;SDS011;40029;58.708;50.190;2022-09-01T08:09:07;4.07;;;3.70;;
54121;SDS011;40029;58.708;50.190;2022-09-01T08:11:41;4.10;;;3.60;;
54121;SDS011;40029;58.708;50.190;2022-09-01T08:14:12;7.53;;;3.35;;
54121;SDS011;40029;58.708;50.190;2022-09-01T08:16:43;6.65;;;3.35;;
54121;SDS011;40029;58.708;50.190;2022-09-01T08:19:17;6.28;;;3.40;;
54121;SDS011;40029;58.708;50.190;2022-09-01T08:22:20;4.30;;;3.85;;
54121;SDS011;40029;58.708;50.190;2022-09-01T08:25:07;3.88;;;3.28;;
54121;SDS011;40029;58.708;50.190;2022-09-01T08:27:41;4.70;;;3.40;;
54121;SDS011;40029;58.708;50.190;2022-09-01T08:30:12;5.50;;;2.80;;
54121;SDS011;40029;58.708;50.190;2022-09-01T08:32:44;3.10;;;2.90;;
54121;SDS011;40029;58.708;50.190;2022-09-01T08:35:15;3.78;;;2.22;;
54121;SDS011;40029;58.708;50.190;2022-09-01T08:37:46;2.15;;;1.73;;
54121;SDS011;40029;58.708;50.190;2022-09-01T08:40:18;7.28;;;2.17;;
54121;SDS011;40029;58.708;50.190;2022-09-01T08:45:45;10.57;;;2.10;;
54121;SDS011;40029;58.708;50.190;2022-09-01T08:51:17;1.70;;;1.55;;
54121;SDS011;40029;58.708;50.190;2022-09-01T08:57:17;4.75;;;1.85;;
54121;SDS011;40029;58.708;50.190;2022-09-01T09:00:32;5.72;;;1.67;;
54121;SDS011;40029;58.708;50.190;2022-09-01T09:03:18;7.05;;;1.77;;
54121;SDS011;40029;58.708;50.190;2022-09-01T09:09:01;5.72;;;1.60;;
54121;SDS011;40029;58.708;50.190;2022-09-01T09:14:32;8.98;;;6.88;;
54121;SDS011;40029;58.708;50.190;2022-09-01T09:17:32;7.32;;;2.10;;
54121;SDS011;40029;58.708;50.190;2022-09-01T09:20:09;3.30;;;2.58;;
54121;SDS011;40029;58.708;50.190;2022-09-01T09:22:40;6.93;;;2.33;;
54121;SDS011;40029;58.708;50.190;2022-09-01T09:25:13;10.90;;;3.40;;
54121;SDS011;40029;58.708;50.190;2022-09-01T09:27:48;4.40;;;2.22;;
54121;SDS011;40029;58.708;50.190;2022-09-01T09:30:21;3.15;;;1.40;;
54121;SDS011;40029;58.708;50.190;2022-09-01T09:32:57;8.00;;;2.40;;
54121;SDS011;40029;58.708;50.190;2022-09-01T09:40:59;7.35;;;2.70;;
54121;SDS011;40029;58.708;50.190;2022-09-01T09:43:37;6.07;;;2.42;;
54121;SDS011;40029;58.708;50.190;2022-09-01T09:54:33;2.95;;;1.42;;
54121;SDS011;40029;58.708;50.190;2022-09-01T09:59:39;5.20;;;1.40;;
54121;SDS011;40029;58.708;50.190;2022-09-01T10:05:40;2.20;;;1.50;;
54121;SDS011;40029;58.708;50.190;2022-09-01T10:08:36;6.85;;;1.80;;
54121;SDS011;40029;58.708;50.190;2022-09-01T10:11:35;4.18;;;1.27;;
54121;SDS011;40029;58.708;50.190;2022-09-01T10:14:10;4.18;;;1.73;;
54121;SDS011;40029;58.708;50.190;2022-09-01T10:16:59;5.32;;;1.50;;
54121;SDS011;40029;58.708;50.190;2022-09-01T10:19:34;2.35;;;1.60;;
54121;SDS011;40029;58.708;50.190;2022-09-01T10:22:09;8.32;;;2.25;;
54121;SDS011;40029;58.708;50.190;2022-09-01T10:24:41;1.98;;;1.75;;
54121;SDS011;40029;58.708;50.190;2022-09-01T10:27:18;5.95;;;2.20;;
54121;SDS011;40029;58.708;50.190;2022-09-01T10:29:53;5.72;;;1.90;;
54121;SDS011;40029;58.708;50.190;2022-09-01T10:32:54;1.92;;;1.30;;
54121;SDS011;40029;58.708;50.190;2022-09-01T10:35:32;2.25;;;1.42;;
54121;SDS011;40029;58.708;50.190;2022-09-01T10:38:13;2.45;;;1.63;;
54121;SDS011;40029;58.708;50.190;2022-09-01T10:40:54;7.40;;;1.70;;
54121;SDS011;40029;58.708;50.190;2022-09-01T10:43:41;26.50;;;16.00;;
54121;SDS011;40029;58.708;50.190;2022-09-01T10:48:52;5.40;;;2.17;;
54121;SDS011;40029;58.708;50.190;2022-09-01T10:53:58;3.85;;;1.40;;
54121;SDS011;40029;58.708;50.190;2022-09-01T11:02:05;2.70;;;1.30;;
54121;SDS011;40029;58.708;50.190;2022-09-01T11:13:10;3.72;;;1.10;;
54121;SDS011;40029;58.708;50.190;2022-09-01T11:22:08;2.63;;;0.90;;
54121;SDS011;40029;58.708;50.190;2022-09-01T11:30:21;2.17;;;0.98;;
54121;SDS011;40029;58.708;50.190;2022-09-01T11:32:56;4.28;;;2.70;;
54121;SDS011;40029;58.708;50.190;2022-09-01T11:35:33;3.53;;;1.30;;
54121;SDS011;40029;58.708;50.190;2022-09-01T11:38:05;3.25;;;1.13;;
54121;SDS011;40029;58.708;50.190;2022-09-01T11:40:38;3.50;;;0.77;;
54121;SDS011;40029;58.708;50.190;2022-09-01T11:43:10;2.75;;;1.17;;
54121;SDS011;40029;58.708;50.190;2022-09-01T11:46:07;3.22;;;1.10;;
54121;SDS011;40029;58.708;50.190;2022-09-01T11:48:46;1.08;;;0.80;;
54121;SDS011;40029;58.708;50.190;2022-09-01T11:51:18;2.90;;;0.80;;
54121;SDS011;40029;58.708;50.190;2022-09-01T11:53:50;8.82;;;1.38;;
54121;SDS011;40029;58.708;50.190;2022-09-01T11:56:27;3.85;;;0.77;;
54121;SDS011;40029;58.708;50.190;2022-09-01T11:58:59;1.17;;;0.50;;
54121;SDS011;40029;58.708;50.190;2022-09-01T12:04:22;0.93;;;0.70;;
54121;SDS011;40029;58.708;50.190;2022-09-01T12:09:44;3.78;;;0.85;;
54121;SDS011;40029;58.708;50.190;2022-09-01T12:12:26;2.13;;;0.60;;
54121;SDS011;40029;58.708;50.190;2022-09-01T12:15:15;2.20;;;0.88;;
54121;SDS011;40029;58.708;50.190;2022-09-01T12:17:47;4.25;;;0.90;;
54121;SDS011;40029;58.708;50.190;2022-09-01T12:20:25;4.72;;;3.45;;
54121;SDS011;40029;58.708;50.190;2022-09-01T12:22:59;1.77;;;0.90;;
54121;SDS011;40029;58.708;50.190;2022-09-01T12:25:32;0.95;;;0.57;;
54121;SDS011;40029;58.708;50.190;2022-09-01T12:28:04;1.05;;;0.60;;
54121;SDS011;40029;58.708;50.190;2022-09-01T12:30:38;6.65;;;2.70;;
54121;SDS011;40029;58.708;50.190;2022-09-01T12:33:11;3.17;;;1.00;;
54121;SDS011;40029;58.708;50.190;2022-09-01T12:35:44;3.33;;;1.25;;
54121;SDS011;40029;58.708;50.190;2022-09-01T12:40:51;12.38;;;5.53;;
54121;SDS011;40029;58.708;50.190;2022-09-01T12:43:33;4.55;;;2.20;;
54121;SDS011;40029;58.708;50.190;2022-09-01T12:46:06;4.22;;;1.15;;
54121;SDS011;40029;58.708;50.190;2022-09-01T12:48:40;7.30;;;2.22;;
54121;SDS011;40029;58.708;50.190;2022-09-01T12:51:23;15.95;;;6.10;;
54121;SDS011;40029;58.708;50.190;2022-09-01T12:53:57;5.30;;;2.83;;
54121;SDS011;40029;58.708;50.190;2022-09-01T12:56:30;7.78;;;2.67;;
54121;SDS011;40029;58.708;50.190;2022-09-01T12:59:07;3.13;;;0.85;;
54121;SDS011;40029;58.708;50.190;2022-09-01T13:01:41;8.18;;;1.02;;
54121;SDS011;40029;58.708;50.190;2022-09-01T13:06:53;2.95;;;1.48;;
54121;SDS011;40029;58.708;50.190;2022-09-01T13:09:26;25.73;;;6.80;;
54121;SDS011;40029;58.708;50.190;2022-09-01T13:15:00;5.63;;;2.30;;
54121;SDS011;40029;58.708;50.190;2022-09-01T13:17:33;0.73;;;0.50;;
54121;SDS011;40029;58.708;50.190;2022-09-01T13:20:05;4.82;;;1.45;;
54121;SDS011;40029;58.708;50.190;2022-09-01T13:22:37;4.10;;;1.13;;
54121;SDS011;40029;58.708;50.190;2022-09-01T13:25:11;7.93;;;2.58;;
54121;SDS011;40029;58.708;50.190;2022-09-01T13:27:43;3.58;;;1.02;;
54121;SDS011;40029;58.708;50.190;2022-09-01T13:30:18;1.15;;;0.82;;
54121;SDS011;40029;58.708;50.190;2022-09-01T13:32:51;3.00;;;0.82;;
54121;SDS011;40029;58.708;50.190;2022-09-01T13:35:22;3.35;;;1.30;;
54121;SDS011;40029;58.708;50.190;2022-09-01T13:37:54;1.63;;;0.68;;
54121;SDS011;40029;58.708;50.190;2022-09-01T13:40:25;4.82;;;2.25;;
54121;SDS011;40029;58.708;50.190;2022-09-01T13:42:56;2.25;;;0.73;;
54121;SDS011;40029;58.708;50.190;2022-09-01T13:45:27;2.00;;;0.85;;
54121;SDS011;40029;58.708;50.190;2022-09-01T13:47:58;3.20;;;1.63;;
54121;SDS011;40029;58.708;50.190;2022-09-01T13:50:29;18.38;;;0.90;;
54121;SDS011;40029;58.708;50.190;2022-09-01T13:53:00;5.72;;;1.40;;
54121;SDS011;40029;58.708;50.190;2022-09-01T13:55:33;13.48;;;2.30;;
54121;SDS011;40029;58.708;50.190;2022-09-01T13:58:08;3.08;;;0.50;;
54121;SDS011;40029;58.708;50.190;2022-09-01T14:00:41;4.53;;;0.52;;
54121;SDS011;40029;58.708;50.190;2022-09-01T14:03:16;6.57;;;1.13;;
54121;SDS011;40029;58.708;50.190;2022-09-01T14:05:49;6.40;;;0.65;;
54121;SDS011;40029;58.708;50.190;2022-09-01T14:08:21;1.13;;;0.50;;
54121;SDS011;40029;58.708;50.190;2022-09-01T14:10:52;3.70;;;0.50;;
54121;SDS011;40029;58.708;50.190;2022-09-01T14:13:23;1.52;;;0.35;;
54121;SDS011;40029;58.708;50.190;2022-09-01T14:15:55;6.45;;;1.30;;
54121;SDS011;40029;58.708;50.190;2022-09-01T14:18:26;4.47;;;0.60;;
54121;SDS011;40029;58.708;50.190;2022-09-01T14:21:02;10.75;;;1.35;;
54121;SDS011;40029;58.708;50.190;2022-09-01T14:23:33;3.15;;;0.40;;
54121;SDS011;40029;58.708;50.190;2022-09-01T14:26:07;5.03;;;0.50;;
54121;SDS011;40029;58.708;50.190;2022-09-01T14:28:41;4.60;;;0.77;;
54121;SDS011;40029;58.708;50.190;2022-09-01T14:31:16;3.05;;;1.10;;
54121;SDS011;40029;58.708;50.190;2022-09-01T14:33:48;2.92;;;0.85;;
54121;SDS011;40029;58.708;50.190;2022-09-01T14:36:24;0.88;;;0.50;;
54121;SDS011;40029;58.708;50.190;2022-09-01T14:38:56;2.72;;;0.65;;
54121;SDS011;40029;58.708;50.190;2022-09-01T14:41:27;6.72;;;1.20;;
54121;SDS011;40029;58.708;50.190;2022-09-01T14:43:58;3.72;;;0.60;;
54121;SDS011;40029;58.708;50.190;2022-09-01T14:46:31;3.65;;;0.75;;
54121;SDS011;40029;58.708;50.190;2022-09-01T14:49:03;3.50;;;1.30;;
54121;SDS011;40029;58.708;50.190;2022-09-01T14:51:35;8.48;;;2.28;;
54121;SDS011;40029;58.708;50.190;2022-09-01T14:54:08;3.47;;;1.55;;
54121;SDS011;40029;58.708;50.190;2022-09-01T14:56:39;11.23;;;1.88;;
54121;SDS011;40029;58.708;50.190;2022-09-01T14:59:10;13.18;;;1.40;;
54121;SDS011;40029;58.708;50.190;2022-09-01T15:01:42;2.53;;;1.00;;
54121;SDS011;40029;58.708;50.190;2022-09-01T15:04:13;3.15;;;1.23;;
54121;SDS011;40029;58.708;50.190;2022-09-01T15:06:44;10.60;;;1.50;;
54121;SDS011;40029;58.708;50.190;2022-09-01T15:09:15;7.93;;;1.20;;
54121;SDS011;40029;58.708;50.190;2022-09-01T15:11:46;32.38;;;2.45;;
54121;SDS011;40029;58.708;50.190;2022-09-01T15:14:17;15.45;;;2.13;;
54121;SDS011;40029;58.708;50.190;2022-09-01T15:16:48;12.20;;;1.42;;
54121;SDS011;40029;58.708;50.190;2022-09-01T15:19:20;8.10;;;0.93;;
54121;SDS011;40029;58.708;50.190;2022-09-01T15:21:51;11.10;;;0.40;;
54121;SDS011;40029;58.708;50.190;2022-09-01T15:24:22;9.15;;;1.30;;
54121;SDS011;40029;58.708;50.190;2022-09-01T15:26:53;20.13;;;1.50;;
54121;SDS011;40029;58.708;50.190;2022-09-01T15:29:24;7.32;;;1.42;;
54121;SDS011;40029;58.708;50.190;2022-09-01T15:31:55;12.00;;;0.73;;
54121;SDS011;40029;58.708;50.190;2022-09-01T15:34:26;3.25;;;0.68;;
54121;SDS011;40029;58.708;50.190;2022-09-01T15:36:57;4.88;;;0.90;;
54121;SDS011;40029;58.708;50.190;2022-09-01T15:39:29;7.63;;;1.50;;
54121;SDS011;40029;58.708;50.190;2022-09-01T15:42:00;6.32;;;0.80;;
54121;SDS011;40029;58.708;50.190;2022-09-01T15:44:32;17.13;;;1.55;;
54121;SDS011;40029;58.708;50.190;2022-09-01T15:47:03;17.55;;;2.25;;
54121;SDS011;40029;58.708;50.190;2022-09-01T15:49:34;17.92;;;2.25;;
54121;SDS011;40029;58.708;50.190;2022-09-01T15:52:05;21.63;;;3.63;;
54121;SDS011;40029;58.708;50.190;2022-09-01T15:54:37;28.98;;;3.78;;
54121;SDS011;40029;58.708;50.190;2022-09-01T15:57:08;47.17;;;19.73;;
54121;SDS011;40029;58.708;50.190;2022-09-01T15:59:39;33.72;;;17.05;;
54121;SDS011;40029;58.708;50.190;2022-09-01T16:02:12;74.78;;;19.58;;
54121;SDS011;40029;58.708;50.190;2022-09-01T16:04:48;48.03;;;18.35;;
54121;SDS011;40029;58.708;50.190;2022-09-01T16:07:19;41.55;;;16.17;;
54121;SDS011;40029;58.708;50.190;2022-09-01T16:09:50;45.15;;;15.73;;
54121;SDS011;40029;58.708;50.190;2022-09-01T16:12:27;42.95;;;11.45;;
54121;SDS011;40029;58.708;50.190;2022-09-01T16:14:58;26.30;;;3.83;;
54121;SDS011;40029;58.708;50.190;2022-09-01T16:20:19;10.05;;;2.40;;
54121;SDS011;40029;58.708;50.190;2022-09-01T16:22:54;24.42;;;5.25;;
54121;SDS011;40029;58.708;50.190;2022-09-01T16:25:29;18.60;;;3.30;;
54121;SDS011;40029;58.708;50.190;2022-09-01T16:28:09;49.33;;;5.00;;